createdAt,value
2023-06-11T00:01:50.764Z,19.90
2023-06-11T00:04:27.350Z,19.90
2023-06-11T00:07:00.765Z,19.80
2023-06-11T00:09:32.345Z,19.80
2023-06-11T00:12:03.985Z,19.80
2023-06-11T00:14:35.734Z,19.80
2023-06-11T00:17:07.989Z,19.70
2023-06-11T00:19:41.124Z,19.70
2023-06-11T00:22:13.769Z,19.60
2023-06-11T00:24:45.338Z,19.50
2023-06-11T00:27:17.039Z,19.50
2023-06-11T00:29:48.546Z,19.50
2023-06-11T00:32:20.267Z,19.50
2023-06-11T00:34:51.907Z,19.40
2023-06-11T00:37:24.058Z,19.30
2023-06-11T00:39:55.493Z,19.30
2023-06-11T00:42:28.467Z,19.30
2023-06-11T00:45:01.588Z,19.30
2023-06-11T00:47:33.536Z,19.20
2023-06-11T00:50:07.844Z,19.10
2023-06-11T00:52:42.133Z,19.20
2023-06-11T00:55:13.447Z,19.20
2023-06-11T00:57:45.192Z,19.20
2023-06-11T01:00:18.431Z,19.10
2023-06-11T01:02:54.397Z,19.20
2023-06-11T01:05:27.580Z,19.20
2023-06-11T01:07:59.892Z,19.10
2023-06-11T01:10:31.381Z,19.10
2023-06-11T01:13:03.184Z,19.10
2023-06-11T01:15:34.632Z,19.10
2023-06-11T01:18:09.969Z,19.00
2023-06-11T01:20:46.239Z,19.00
2023-06-11T01:23:29.683Z,18.90
2023-06-11T01:26:19.241Z,18.80
2023-06-11T01:28:55.375Z,18.60
2023-06-11T01:31:30.770Z,18.50
2023-06-11T01:34:03.228Z,18.50
2023-06-11T01:36:37.198Z,18.50
2023-06-11T01:39:10.164Z,18.50
2023-06-11T01:41:41.711Z,18.50
2023-06-11T01:44:13.929Z,18.40
2023-06-11T01:46:45.881Z,18.30
2023-06-11T01:49:17.597Z,18.20
2023-06-11T01:51:49.083Z,18.10
2023-06-11T01:54:20.844Z,18.20
2023-06-11T01:56:52.609Z,18.10
2023-06-11T01:59:24.401Z,18.20
2023-06-11T02:01:56.634Z,18.20
2023-06-11T02:04:28.474Z,18.20
2023-06-11T02:07:00.911Z,18.20
2023-06-11T02:09:32.435Z,18.20
2023-06-11T02:12:03.962Z,18.20
2023-06-11T02:14:35.606Z,18.20
2023-06-11T02:17:07.688Z,18.20
2023-06-11T02:19:39.112Z,18.10
2023-06-11T02:22:10.709Z,18.10
2023-06-11T02:24:42.159Z,18.10
2023-06-11T02:27:13.855Z,18.10
2023-06-11T02:29:45.404Z,18.00
2023-06-11T02:32:17.324Z,18.00
2023-06-11T02:34:48.832Z,18.00
2023-06-11T02:37:20.505Z,17.90
2023-06-11T02:39:52.041Z,17.60
2023-06-11T02:42:23.737Z,17.20
2023-06-11T02:44:55.356Z,17.00
2023-06-11T02:47:27.044Z,16.80
2023-06-11T02:49:58.645Z,16.70
2023-06-11T02:52:30.286Z,16.70
2023-06-11T02:55:01.977Z,16.80
2023-06-11T02:57:33.667Z,16.90
2023-06-11T03:00:06.902Z,17.00
2023-06-11T03:02:38.487Z,17.00
2023-06-11T03:05:11.192Z,17.00
2023-06-11T03:07:42.948Z,16.90
2023-06-11T03:10:14.480Z,16.90
2023-06-11T03:12:46.093Z,16.80
2023-06-11T03:15:17.555Z,16.80
2023-06-11T03:17:49.161Z,16.80
2023-06-11T03:20:20.708Z,16.80
2023-06-11T03:22:52.296Z,16.80
2023-06-11T03:25:23.814Z,16.90
2023-06-11T03:27:55.607Z,16.90
2023-06-11T03:30:27.369Z,17.00
2023-06-11T03:32:59.041Z,17.00
2023-06-11T03:35:30.802Z,17.00
2023-06-11T03:38:02.106Z,16.90
2023-06-11T03:40:34.994Z,16.80
2023-06-11T03:43:06.613Z,16.80
2023-06-11T03:45:38.512Z,16.90
2023-06-11T03:48:10.206Z,16.80
2023-06-11T03:50:41.722Z,16.80
2023-06-11T03:53:13.288Z,16.90
2023-06-11T03:55:45.075Z,16.90
2023-06-11T03:58:16.635Z,16.90
2023-06-11T04:00:48.172Z,17.00
2023-06-11T04:03:19.815Z,17.00
2023-06-11T04:05:51.452Z,17.10
2023-06-11T04:08:23.003Z,17.10
2023-06-11T04:10:54.559Z,17.20
2023-06-11T04:13:26.072Z,17.60
2023-06-11T04:15:57.649Z,18.50
2023-06-11T04:18:29.416Z,19.40
2023-06-11T04:21:01.076Z,20.10
2023-06-11T04:23:33.612Z,21.00
2023-06-11T04:26:05.261Z,21.70
2023-06-11T04:28:37.053Z,21.70
2023-06-11T04:31:08.745Z,22.10
2023-06-11T04:33:40.320Z,22.60
2023-06-11T04:36:12.466Z,22.90
2023-06-11T04:38:46.095Z,23.50
2023-06-11T04:41:17.942Z,23.60
2023-06-11T04:43:49.570Z,23.40
2023-06-11T04:46:21.320Z,23.30
2023-06-11T04:48:52.901Z,22.90
2023-06-11T04:51:24.927Z,22.70
2023-06-11T04:53:57.984Z,22.80
2023-06-11T04:56:29.516Z,23.10
2023-06-11T04:59:02.617Z,23.20
2023-06-11T05:01:34.349Z,23.40
2023-06-11T05:04:06.506Z,23.70
2023-06-11T05:06:38.167Z,24.00
2023-06-11T05:09:09.741Z,24.20
2023-06-11T05:11:42.306Z,24.60
2023-06-11T05:14:14.500Z,25.40
2023-06-11T05:16:46.599Z,25.90
2023-06-11T05:19:18.128Z,27.40
2023-06-11T05:21:49.803Z,28.60
2023-06-11T05:24:22.058Z,28.60
2023-06-11T05:26:57.750Z,28.50
2023-06-11T05:29:29.233Z,28.00
2023-06-11T05:32:01.457Z,27.60
2023-06-11T05:34:34.314Z,27.20
2023-06-11T05:37:07.170Z,27.40
2023-06-11T05:39:38.811Z,27.80
2023-06-11T05:42:11.923Z,28.00
2023-06-11T05:44:43.543Z,29.10
2023-06-11T05:47:15.258Z,29.30
2023-06-11T05:49:46.515Z,29.40
2023-06-11T05:52:18.319Z,30.00
2023-06-11T05:54:49.835Z,30.40
2023-06-11T05:57:22.947Z,30.50
2023-06-11T05:59:54.755Z,29.70
2023-06-11T06:02:29.160Z,29.10
2023-06-11T06:04:59.897Z,28.80
2023-06-11T06:07:31.613Z,28.30
2023-06-11T06:10:03.858Z,27.90
2023-06-11T06:12:35.424Z,27.30
2023-06-11T06:15:09.085Z,27.10
2023-06-11T06:17:41.080Z,27.40
2023-06-11T06:20:14.072Z,27.90
2023-06-11T06:22:45.780Z,29.00
2023-06-11T06:25:18.656Z,28.50
2023-06-11T06:27:50.344Z,28.40
2023-06-11T06:30:22.070Z,29.90
2023-06-11T06:32:55.574Z,30.90
2023-06-11T06:35:26.971Z,31.80
2023-06-11T06:37:59.246Z,32.30
2023-06-11T06:40:30.895Z,32.60
2023-06-11T06:43:03.132Z,32.60
2023-06-11T06:45:36.067Z,32.60
2023-06-11T06:48:08.631Z,32.40
2023-06-11T06:50:40.434Z,32.50
2023-06-11T06:53:11.699Z,32.40
2023-06-11T06:55:44.353Z,32.30
2023-06-11T06:58:16.000Z,31.70
2023-06-11T07:00:47.591Z,31.60
2023-06-11T07:03:19.144Z,31.40
2023-06-11T07:05:50.812Z,30.90
2023-06-11T07:08:22.408Z,31.00
2023-06-11T07:10:56.306Z,30.50
2023-06-11T07:13:28.322Z,30.40
2023-06-11T07:15:59.927Z,30.70
2023-06-11T07:18:32.331Z,30.90
2023-06-11T07:21:04.004Z,31.20
2023-06-11T07:23:35.727Z,31.20
2023-06-11T07:26:07.565Z,31.30
2023-06-11T07:28:41.002Z,31.30
2023-06-11T07:31:13.827Z,31.30
2023-06-11T07:33:45.610Z,31.20
2023-06-11T07:36:17.770Z,30.80
2023-06-11T07:38:49.560Z,30.40
2023-06-11T07:41:21.059Z,29.80
2023-06-11T07:43:52.590Z,29.10
2023-06-11T07:46:24.227Z,28.50
2023-06-11T07:48:55.734Z,27.90
2023-06-11T07:51:33.569Z,27.50
2023-06-11T07:54:05.811Z,27.10
2023-06-11T07:56:37.467Z,26.60
2023-06-11T07:59:09.193Z,26.40
2023-06-11T08:01:41.396Z,26.10
2023-06-11T08:04:13.116Z,25.90
2023-06-11T08:06:45.234Z,25.80
2023-06-11T08:09:16.708Z,25.70
2023-06-11T08:11:48.834Z,25.80
2023-06-11T08:14:20.167Z,25.90
2023-06-11T08:16:51.896Z,26.00
2023-06-11T08:19:23.779Z,26.00
2023-06-11T08:21:57.590Z,26.10
2023-06-11T08:24:29.247Z,26.30
2023-06-11T08:27:01.282Z,26.40
2023-06-11T08:29:32.825Z,26.10
2023-06-11T08:32:05.201Z,26.00
2023-06-11T08:34:37.074Z,26.20
2023-06-11T08:37:09.584Z,26.30
2023-06-11T08:39:41.166Z,26.60
2023-06-11T08:42:12.809Z,26.70
2023-06-11T08:44:44.378Z,26.80
2023-06-11T08:47:17.704Z,26.90
2023-06-11T08:49:49.813Z,26.80
2023-06-11T08:52:23.061Z,26.90
2023-06-11T08:54:55.300Z,27.10
2023-06-11T08:57:27.967Z,27.10
2023-06-11T08:59:59.533Z,27.00
2023-06-11T09:02:31.311Z,27.10
2023-06-11T09:05:02.833Z,27.00
2023-06-11T09:07:37.221Z,27.10
2023-06-11T09:10:12.684Z,27.20
2023-06-11T09:12:44.478Z,27.30
2023-06-11T09:15:19.222Z,27.50
2023-06-11T09:17:50.750Z,27.40
2023-06-11T09:20:23.287Z,27.60
2023-06-11T09:22:55.881Z,27.50
2023-06-11T09:25:30.499Z,27.40
2023-06-11T09:28:07.704Z,27.70
2023-06-11T09:30:39.314Z,28.00
2023-06-11T09:33:18.478Z,27.80
2023-06-11T09:35:50.172Z,28.00
2023-06-11T09:38:23.211Z,28.10
2023-06-11T09:40:57.222Z,27.50
2023-06-11T09:43:28.871Z,27.30
2023-06-11T09:46:01.366Z,27.10
2023-06-11T09:48:33.167Z,27.30
2023-06-11T09:51:05.155Z,27.30
2023-06-11T09:53:36.947Z,27.50
2023-06-11T09:56:11.382Z,27.80
2023-06-11T09:58:42.758Z,28.10
2023-06-11T10:01:14.741Z,28.30
2023-06-11T10:03:47.024Z,28.40
2023-06-11T10:06:22.059Z,28.90
2023-06-11T10:08:55.292Z,29.20
2023-06-11T10:11:27.822Z,29.60
2023-06-11T10:14:00.605Z,29.60
2023-06-11T10:16:33.964Z,29.70
2023-06-11T10:19:10.233Z,29.10
2023-06-11T10:21:45.514Z,29.20
2023-06-11T10:24:24.979Z,29.50
2023-06-11T10:27:11.799Z,29.60
2023-06-11T10:29:45.397Z,30.10
2023-06-11T10:32:18.614Z,29.80
2023-06-11T10:34:55.891Z,30.00
2023-06-11T10:37:33.042Z,29.70
2023-06-11T10:40:06.326Z,30.00
2023-06-11T10:42:40.006Z,30.00
2023-06-11T10:45:14.054Z,29.80
2023-06-11T10:47:48.946Z,29.10
2023-06-11T10:50:30.915Z,28.60
2023-06-11T10:53:06.221Z,28.40
2023-06-11T10:55:44.402Z,28.20
2023-06-11T10:58:24.178Z,28.20
2023-06-11T11:00:56.038Z,28.10
2023-06-11T11:03:30.825Z,28.10
2023-06-11T11:06:02.509Z,27.90
2023-06-11T11:08:34.069Z,27.60
2023-06-11T11:11:06.669Z,27.70
2023-06-11T11:13:38.221Z,27.90
2023-06-11T11:16:10.912Z,28.10
2023-06-11T11:18:42.530Z,28.50
2023-06-11T11:21:14.208Z,28.80
2023-06-11T11:23:49.350Z,29.10
2023-06-11T11:26:21.834Z,29.30
2023-06-11T11:28:53.533Z,29.00
2023-06-11T11:31:25.518Z,28.80
2023-06-11T11:33:57.996Z,29.00
2023-06-11T11:36:29.653Z,29.00
2023-06-11T11:39:11.702Z,29.10
2023-06-11T11:41:51.098Z,29.10
2023-06-11T11:44:23.334Z,29.20
2023-06-11T11:46:58.661Z,29.20
2023-06-11T11:49:35.113Z,29.30
2023-06-11T11:52:11.061Z,29.40
2023-06-11T11:54:45.598Z,29.50
2023-06-11T11:57:21.722Z,29.20
2023-06-11T11:59:55.044Z,28.90
2023-06-11T12:02:29.572Z,28.90
2023-06-11T12:05:01.565Z,28.90
2023-06-11T12:07:33.227Z,28.90
2023-06-11T12:10:05.031Z,28.50
2023-06-11T12:12:36.735Z,27.80
2023-06-11T12:15:10.031Z,26.90
2023-06-11T12:17:43.318Z,26.50
2023-06-11T12:20:15.514Z,26.00
2023-06-11T12:22:47.118Z,25.50
2023-06-11T12:25:18.939Z,25.20
2023-06-11T12:27:50.530Z,25.00
2023-06-11T12:30:22.440Z,24.80
2023-06-11T12:32:54.326Z,24.60
2023-06-11T12:35:26.606Z,24.20
2023-06-11T12:37:58.179Z,23.90
2023-06-11T12:40:31.572Z,23.80
2023-06-11T12:43:03.315Z,23.70
2023-06-11T12:45:36.501Z,23.70
2023-06-11T12:48:08.587Z,24.00
2023-06-11T12:50:40.198Z,24.50
2023-06-11T12:53:12.358Z,24.90
2023-06-11T12:55:43.919Z,25.20
2023-06-11T12:58:15.793Z,25.60
2023-06-11T13:00:47.315Z,26.10
2023-06-11T13:03:19.350Z,26.50
2023-06-11T13:05:51.217Z,26.90
2023-06-11T13:08:23.002Z,27.20
2023-06-11T13:10:54.500Z,27.40
2023-06-11T13:13:26.126Z,27.30
2023-06-11T13:15:57.799Z,27.30
2023-06-11T13:18:29.458Z,27.40
2023-06-11T13:21:01.545Z,27.50
2023-06-11T13:23:33.306Z,27.60
2023-06-11T13:26:04.902Z,27.70
2023-06-11T13:28:36.621Z,27.80
2023-06-11T13:31:08.219Z,27.80
2023-06-11T13:33:39.825Z,28.00
2023-06-11T13:36:12.338Z,28.00
2023-06-11T13:38:43.921Z,28.00
2023-06-11T13:41:15.503Z,28.10
2023-06-11T13:43:47.247Z,28.10
2023-06-11T13:46:19.890Z,28.30
2023-06-11T13:48:51.590Z,28.50
2023-06-11T13:51:25.049Z,28.70
2023-06-11T13:53:56.838Z,28.90
2023-06-11T13:56:29.008Z,29.00
2023-06-11T13:59:01.487Z,29.10
2023-06-11T14:01:33.160Z,29.20
2023-06-11T14:04:05.207Z,29.30
2023-06-11T14:06:37.572Z,29.30
2023-06-11T14:09:09.661Z,29.40
2023-06-11T14:11:41.288Z,29.50
2023-06-11T14:14:13.590Z,29.40
2023-06-11T14:16:45.333Z,29.40
2023-06-11T14:19:16.690Z,29.70
2023-06-11T14:21:48.408Z,29.70
2023-06-11T14:24:20.026Z,29.80
2023-06-11T14:26:52.218Z,29.90
2023-06-11T14:29:23.871Z,29.70
2023-06-11T14:32:02.014Z,29.80
2023-06-11T14:34:33.845Z,30.10
2023-06-11T14:37:06.353Z,30.10
2023-06-11T14:39:37.977Z,30.20
2023-06-11T14:42:11.484Z,30.30
2023-06-11T14:44:43.367Z,30.40
2023-06-11T14:47:15.345Z,30.30
2023-06-11T14:49:47.033Z,30.20
2023-06-11T14:52:18.598Z,30.00
2023-06-11T14:54:50.160Z,29.50
2023-06-11T14:57:25.195Z,29.10
2023-06-11T14:59:55.653Z,28.70
2023-06-11T15:02:28.483Z,28.60
2023-06-11T15:05:00.465Z,28.60
2023-06-11T15:07:35.438Z,28.70
2023-06-11T15:10:08.210Z,28.80
2023-06-11T15:12:39.927Z,28.80
2023-06-11T15:15:12.755Z,29.00
2023-06-11T15:17:44.273Z,28.70
2023-06-11T15:20:16.333Z,28.60
2023-06-11T15:22:48.037Z,28.50
2023-06-11T15:25:20.415Z,28.20
2023-06-11T15:27:52.075Z,28.00
2023-06-11T15:30:23.972Z,27.80
2023-06-11T15:32:56.744Z,27.70
2023-06-11T15:35:28.681Z,27.70
2023-06-11T15:38:00.266Z,27.60
2023-06-11T15:40:32.483Z,27.70
2023-06-11T15:43:04.106Z,27.90
2023-06-11T15:45:35.941Z,28.00
2023-06-11T15:48:08.215Z,28.10
2023-06-11T15:50:41.231Z,28.20
2023-06-11T15:53:12.709Z,28.10
2023-06-11T15:55:44.251Z,28.20
2023-06-11T15:58:16.362Z,28.30
2023-06-11T16:00:48.002Z,28.20
2023-06-11T16:03:20.718Z,28.10
2023-06-11T16:05:52.486Z,28.10
2023-06-11T16:08:24.051Z,28.30
2023-06-11T16:10:55.788Z,28.30
2023-06-11T16:13:27.370Z,28.40
2023-06-11T16:15:58.967Z,28.70
2023-06-11T16:18:30.555Z,28.90
2023-06-11T16:21:04.247Z,29.20
2023-06-11T16:23:37.054Z,29.60
2023-06-11T16:26:08.632Z,29.70
2023-06-11T16:28:40.205Z,29.50
2023-06-11T16:31:11.885Z,29.20
2023-06-11T16:33:56.234Z,28.90
2023-06-11T16:36:17.073Z,28.50
2023-06-11T16:38:48.638Z,28.20
2023-06-11T16:41:21.766Z,28.10
2023-06-11T16:43:53.698Z,28.30
2023-06-11T16:46:25.403Z,28.20
2023-06-11T16:48:57.155Z,28.20
2023-06-11T16:51:29.336Z,28.10
2023-06-11T16:54:00.802Z,28.30
2023-06-11T16:56:33.125Z,28.70
2023-06-11T16:59:04.631Z,28.90
2023-06-11T17:01:36.265Z,28.80
2023-06-11T17:04:08.085Z,28.70
2023-06-11T17:06:39.792Z,28.80
2023-06-11T17:09:11.493Z,28.80
2023-06-11T17:11:42.974Z,28.70
2023-06-11T17:14:14.491Z,28.70
2023-06-11T17:16:46.427Z,29.20
2023-06-11T17:19:18.130Z,29.10
2023-06-11T17:21:50.148Z,29.10
2023-06-11T17:24:21.963Z,28.60
2023-06-11T17:26:53.463Z,28.50
2023-06-11T17:29:25.058Z,28.50
2023-06-11T17:31:56.804Z,28.40
2023-06-11T17:34:28.569Z,28.30
2023-06-11T17:37:01.045Z,28.20
2023-06-11T17:39:32.678Z,28.20
2023-06-11T17:42:04.462Z,28.10
2023-06-11T17:44:36.129Z,27.90
2023-06-11T17:47:08.239Z,27.80
2023-06-11T17:49:39.804Z,27.50
2023-06-11T17:52:11.581Z,27.10
2023-06-11T17:54:43.397Z,26.90
2023-06-11T17:57:15.063Z,26.90
2023-06-11T17:59:46.618Z,26.90
2023-06-11T18:02:19.121Z,26.80
2023-06-11T18:04:51.681Z,26.60
2023-06-11T18:07:24.196Z,26.60
2023-06-11T18:09:57.474Z,26.40
2023-06-11T18:12:31.094Z,26.30
2023-06-11T18:15:22.520Z,26.30
2023-06-11T18:17:41.883Z,26.30
2023-06-11T18:20:14.151Z,26.20
2023-06-11T18:22:45.989Z,26.30
2023-06-11T18:25:17.907Z,26.20
2023-06-11T18:27:49.485Z,26.10
2023-06-11T18:30:22.335Z,26.00
2023-06-11T18:32:54.436Z,26.00
2023-06-11T18:35:26.039Z,25.90
2023-06-11T18:37:57.788Z,25.80
2023-06-11T18:40:29.414Z,25.70
2023-06-11T18:43:02.526Z,25.60
2023-06-11T18:45:34.143Z,25.50
2023-06-11T18:48:06.197Z,25.40
2023-06-11T18:50:38.537Z,25.30
2023-06-11T18:53:11.650Z,25.30
2023-06-11T18:55:43.358Z,25.20
2023-06-11T18:58:17.371Z,25.20
2023-06-11T19:00:48.338Z,25.10
2023-06-11T19:03:19.933Z,25.00
2023-06-11T19:05:51.619Z,25.00
2023-06-11T19:08:23.180Z,24.90
2023-06-11T19:10:55.067Z,24.80
2023-06-11T19:13:26.711Z,24.70
2023-06-11T19:15:59.324Z,24.60
2023-06-11T19:18:30.851Z,24.50
2023-06-11T19:21:02.553Z,24.40
2023-06-11T19:23:34.168Z,24.30
2023-06-11T19:26:05.834Z,24.20
2023-06-11T19:28:37.333Z,24.10
2023-06-11T19:31:08.871Z,24.00
2023-06-11T19:33:40.602Z,24.00
2023-06-11T19:36:12.253Z,23.90
2023-06-11T19:38:44.388Z,23.80
2023-06-11T19:41:16.048Z,23.70
2023-06-11T19:43:50.364Z,23.60
2023-06-11T19:46:24.665Z,23.40
2023-06-11T19:48:55.364Z,23.30
2023-06-11T19:51:27.233Z,23.20
2023-06-11T19:54:00.464Z,23.10
2023-06-11T19:56:32.045Z,23.00
2023-06-11T19:59:03.765Z,23.00
2023-06-11T20:01:35.354Z,22.90
2023-06-11T20:04:07.611Z,22.90
2023-06-11T20:06:39.239Z,22.90
2023-06-11T20:09:11.188Z,22.90
2023-06-11T20:11:43.403Z,22.90
2023-06-11T20:14:15.132Z,22.90
2023-06-11T20:16:47.156Z,22.80
2023-06-11T20:19:19.120Z,22.70
2023-06-11T20:21:50.830Z,22.70
2023-06-11T20:24:25.401Z,22.60
2023-06-11T20:26:57.076Z,22.50
2023-06-11T20:29:28.948Z,22.40
2023-06-11T20:32:00.791Z,22.40
2023-06-11T20:34:32.393Z,22.40
2023-06-11T20:37:03.847Z,22.40
2023-06-11T20:39:35.461Z,22.30
2023-06-11T20:42:08.685Z,22.30
2023-06-11T20:44:40.524Z,22.20
2023-06-11T20:47:12.174Z,22.10
2023-06-11T20:49:44.729Z,22.10
2023-06-11T20:52:16.413Z,22.00
2023-06-11T20:54:48.167Z,21.90
2023-06-11T20:57:19.645Z,21.80
2023-06-11T20:59:51.290Z,21.70
2023-06-11T21:02:23.252Z,21.60
2023-06-11T21:04:54.801Z,21.60
2023-06-11T21:07:26.665Z,21.50
2023-06-11T21:09:58.374Z,21.40
2023-06-11T21:12:30.366Z,21.30
2023-06-11T21:15:01.955Z,21.20
2023-06-11T21:17:33.627Z,21.10
2023-06-11T21:20:06.002Z,21.00
2023-06-11T21:22:37.632Z,21.00
2023-06-11T21:25:11.315Z,21.00
2023-06-11T21:27:43.854Z,20.90
2023-06-11T21:30:16.451Z,20.90
2023-06-11T21:32:47.965Z,20.90
2023-06-11T21:35:19.759Z,20.80
2023-06-11T21:37:51.299Z,20.80
2023-06-11T21:40:27.474Z,20.80
2023-06-11T21:43:00.255Z,20.70
2023-06-11T21:45:31.823Z,20.70
2023-06-11T21:48:04.405Z,20.70
2023-06-11T21:50:35.835Z,20.70
2023-06-11T21:53:08.504Z,20.70
2023-06-11T21:55:40.210Z,20.70
2023-06-11T21:58:12.470Z,20.80
2023-06-11T22:00:45.057Z,20.70
2023-06-11T22:03:18.421Z,20.70
2023-06-11T22:05:52.505Z,20.60
2023-06-11T22:08:25.945Z,20.50
2023-06-11T22:10:57.456Z,20.50
2023-06-11T22:13:30.934Z,20.50
2023-06-11T22:16:02.695Z,20.40
2023-06-11T22:18:34.387Z,20.40
2023-06-11T22:21:06.090Z,20.40
2023-06-11T22:23:50.305Z,20.30
2023-06-11T22:26:11.953Z,20.20
2023-06-11T22:28:43.735Z,20.20
2023-06-11T22:31:15.340Z,20.20
2023-06-11T22:33:46.923Z,20.10
2023-06-11T22:36:18.591Z,20.10
2023-06-11T22:38:50.406Z,20.00
2023-06-11T22:41:23.263Z,20.00
2023-06-11T22:43:54.873Z,20.00
2023-06-11T22:46:26.718Z,20.00
2023-06-11T22:48:58.265Z,20.00
2023-06-11T22:51:29.854Z,19.90
2023-06-11T22:54:01.352Z,19.90
2023-06-11T22:56:32.784Z,19.90
2023-06-11T22:59:04.576Z,19.80
2023-06-11T23:01:37.624Z,19.70
2023-06-11T23:04:09.304Z,19.50
2023-06-11T23:06:42.975Z,19.50
2023-06-11T23:09:14.675Z,19.50
2023-06-11T23:11:49.181Z,19.40
2023-06-11T23:14:20.802Z,19.40
2023-06-11T23:16:52.679Z,19.40
2023-06-11T23:19:26.424Z,19.30
2023-06-11T23:21:59.983Z,19.30
2023-06-11T23:24:33.004Z,19.30
2023-06-11T23:27:05.755Z,19.30
2023-06-11T23:29:37.334Z,19.30
2023-06-11T23:32:10.079Z,19.30
2023-06-11T23:34:41.742Z,19.40
2023-06-11T23:37:14.642Z,19.30
2023-06-11T23:39:46.360Z,19.30
2023-06-11T23:42:17.981Z,19.20
2023-06-11T23:44:49.534Z,19.00
2023-06-11T23:47:21.569Z,18.70
2023-06-11T23:49:53.070Z,18.40
2023-06-11T23:52:24.561Z,18.20
2023-06-11T23:54:57.476Z,18.00
2023-06-11T23:57:29.083Z,17.90
